Terminal Aerodrome Forecast
Issued by NWS Charleston, WV

Current Version | Previous Version | Graphics & Text | Print | Product List | Glossary On
Versions: 1 2 3 4 5 6 7 8 9 10 11 12 13 14 15 16 17 18 19 20 21 22 23 24 25 26 27 28
000
FTUS41 KRLX 182300
TAFBKW
TAF
KBKW 182334Z 1900/1924 25005KT 5SM BR BKN008 OVC015
      TEMPO 1900/1902 3SM -SHRA
     FM190200 25005KT 4SM BR BKN010
     FM190400 VRB03KT 1SM BR BKN007
     FM190700 VRB03KT 1/2SM FG BKN001
     FM191200 VRB03KT 2SM BR BKN003
     FM191400 28004KT 4SM HZ BKN010
     FM191600 VRB03KT 6SM HZ BKN020
     FM191800 29003KT 6SM HZ BKN030=

USA.gov is the U.S. government's official web portal to all federal, state and local government web resources and services.